This is the latest recevied weather packets stored in our database for station/object SP2FH-13. If no packets are shown the sender has not sent any weather packets the latest 10 day(s).
| Time | Temp. | Humidity | Pressure | Rain* | Wind** | Luminosity | Snow |
|---|---|---|---|---|---|---|---|
| 1777841771 | 16.67° C | 45% | 1001.7 hPa | - | - | - | - |
| 1777841470 | 16.11° C | 46% | 1001.7 hPa | - | - | - | - |
| 1777840567 | 16.67° C | 45% | 1001.7 hPa | - | - | - | - |
| 1777840266 | 16.11° C | 46% | 1001.6 hPa | - | - | - | - |
| 1777839965 | 16.11° C | 46% | 1001.6 hPa | - | - | - | - |
| 1777839664 | 16.11° C | 46% | 1001.7 hPa | - | - | - | - |
| 1777839363 | 16.11° C | 46% | 1001.7 hPa | - | - | - | - |
| 1777839062 | 16.67° C | 45% | 1001.7 hPa | - | - | - | - |
| 1777838761 | 16.67° C | 43% | 1001.7 hPa | - | - | - | - |
| 1777838159 | 17.22° C | 44% | 1001.8 hPa | - | - | - | - |
| 1777836954 | 18.33° C | 41% | 1001.8 hPa | - | - | - | - |
| 1777836050 | 17.78° C | 43% | 1001.8 hPa | - | - | - | - |
| 1777835448 | 18.33° C | 41% | 1001.8 hPa | - | - | - | - |
| 1777835147 | 18.33° C | 40% | 1001.8 hPa | - | - | - | - |
| 1777833942 | 19.44° C | 37% | 1001.7 hPa | - | - | - | - |
| 1777833340 | 20° C | 37% | 1001.6 hPa | - | - | - | - |
| 1777832738 | 20.56° C | 35% | 1001.5 hPa | - | - | 1 W/m² | - |
| 1777832437 | 21.11° C | 35% | 1001.5 hPa | - | - | 1 W/m² | - |
| 1777831835 | 21.67° C | 33% | 1001.4 hPa | - | - | 3 W/m² | - |
| 1777830028 | 23.33° C | 29% | 1001.3 hPa | - | - | 17 W/m² | - |
| 1777829727 | 23.33° C | 29% | 1001.3 hPa | - | - | 20 W/m² | - |
| 1777828522 | 23.89° C | 28% | 1001.3 hPa | - | - | 28 W/m² | - |
| 1777827016 | 25.56° C | 25% | 1001.3 hPa | - | - | 43 W/m² | - |
| 1777826112 | 26.11° C | 23% | 1001.3 hPa | - | - | 48 W/m² | - |
| 1777825811 | 26.11° C | 22% | 1001.4 hPa | - | - | 54 W/m² | - |
* Rain since midnight (hover to see other rain measurements)
** Current wind speed in m/s (hover to see current wind gust speed)